Time;durP1;ratioP1;P1;durP2;ratioP2;P2;SDS_P1;SDS_P2;PMS_P1;PMS_P2;Temp;Humidity;BMP_temperature;BMP_pressure;BME280_temperature;BME280_humidity;BME280_pressure;Samples;Min_cycle;Max_cycle;Signal;HPM_P1;HPM_P2
2021/03/24 00:00:38;;;;;;;;;;;;;;;20.79;48.95;101956.13;2106316;28;2115;-34
2021/03/24 00:01:39;;;;;;;;;;;;;;;20.79;48.99;101950.44;2104286;28;1998;-32
2021/03/24 00:02:41;;;;;;;;;;;;;;;20.79;48.92;101945.59;2096472;28;2316;-31
2021/03/24 00:03:42;;;;;;;;;;;;;;;20.80;48.92;101957.81;2097427;28;1728;-33
2021/03/24 00:04:43;;;;;;;;;;;;;;;20.81;49.08;101957.47;2108554;28;1930;-33
2021/03/24 00:05:43;;;;;;;;;;;;;;;20.81;49.17;101953.78;2108173;28;2253;-35
2021/03/24 00:06:44;;;;;;;;;;;;;;;20.80;49.18;101961.47;2108668;28;1230;-33
2021/03/24 00:07:45;;;;;;;;;;;;;;;20.81;49.20;101959.47;2104426;28;2330;-33
2021/03/24 00:08:46;;;;;;;;;;;;;;;20.81;49.05;101953.78;2108548;28;1376;-36
2021/03/24 00:09:47;;;;;;;;;;;;;;;20.80;49.01;101955.78;2107621;28;3988;-34
2021/03/24 00:10:47;;;;;;;;;;;;;;;20.80;49.12;101946.44;2112114;28;1483;-32
2021/03/24 00:11:48;;;;;;;;;;;;;;;20.81;49.13;101948.94;2110519;28;2256;-32
2021/03/24 00:12:49;;;;;;;;;;;;;;;20.81;49.13;101948.94;2104088;28;1737;-35
2021/03/24 00:13:50;;;;;;;;;;;;;;;20.81;49.19;101948.94;2109190;28;1983;-35
2021/03/24 00:14:50;;;;;;;;;;;;;;;20.81;49.11;101942.41;2107780;28;1360;-36
2021/03/24 00:15:51;;;;;;;;;;;;;;;20.81;49.32;101948.94;2111576;28;1180;-35
2021/03/24 00:16:52;;;;;;;;;;;;;;;20.82;49.18;101946.94;2110420;28;2113;-38
2021/03/24 00:17:53;;;;;;;;;;;;;;;20.81;49.28;101946.09;2101581;28;2277;-36
2021/03/24 00:18:54;;;;;;;;;;;;;;;20.81;49.10;101946.09;2107356;28;2111;-33
2021/03/24 00:19:54;;;;;;;;;;;;;;;20.82;49.20;101942.09;2102749;28;2377;-36
2021/03/24 00:21:01;;;;;;;;;;;;;;;20.82;49.36;101947.78;2102694;28;1596;-33
2021/03/24 00:22:02;;;;;;;;;;;;;;;20.83;49.22;101942.94;2108560;28;2296;-36
2021/03/24 00:23:03;;;;;;;;;;;;;;;20.82;49.23;101939.25;2114555;28;1573;-39
2021/03/24 00:24:05;;;;;;;;;;;;;;;20.82;49.12;101944.09;2108180;28;1559;-34
2021/03/24 00:25:06;;;;;;;;;;;;;;;20.82;49.27;101932.72;2104653;28;2477;-35
2021/03/24 00:26:06;;;;;;;;;;;;;;;20.83;49.29;101937.25;2102925;28;2374;-34
2021/03/24 00:27:07;;;;;;;;;;;;;;;20.83;49.21;101935.22;2104581;28;1124;-38
2021/03/24 00:28:08;;;;;;;;;;;;;;;20.83;49.23;101946.59;2109396;28;1183;-37
2021/03/24 00:29:09;;;;;;;;;;;;;;;20.83;49.41;101940.09;2104860;28;2307;-36
2021/03/24 00:30:10;;;;;;;;;;;;;;;20.83;49.38;101943.75;2107711;28;1839;-35
2021/03/24 00:31:11;;;;;;;;;;;;;;;20.82;49.26;101942.09;2112737;28;1653;-34
2021/03/24 00:32:12;;;;;;;;;;;;;;;20.82;49.14;101944.09;2107372;28;2161;-37
2021/03/24 00:33:13;;;;;;;;;;;;;;;20.82;49.31;101938.41;2111353;28;1973;-34
2021/03/24 00:34:15;;;;;;;;;;;;;;;20.81;49.38;101943.25;2108217;28;1614;-35
2021/03/24 00:35:16;;;;;;;;;;;;;;;20.82;49.33;101946.94;2108866;28;1211;-38
2021/03/24 00:36:17;;;;;;;;;;;;;;;20.81;49.20;101943.25;2106613;28;3767;-36
2021/03/24 00:37:18;;;;;;;;;;;;;;;20.81;49.16;101943.25;2108263;28;1974;-35
2021/03/24 00:38:18;;;;;;;;;;;;;;;20.82;49.18;101944.09;2101891;28;2551;-34
2021/03/24 00:39:19;;;;;;;;;;;;;;;20.81;49.25;101943.25;2110262;28;2073;-32
2021/03/24 00:40:20;;;;;;;;;;;;;;;20.81;49.08;101940.41;2101406;28;2381;-35
2021/03/24 00:41:20;;;;;;;;;;;;;;;20.81;49.27;101943.25;2109670;28;2513;-37
2021/03/24 00:42:21;;;;;;;;;;;;;;;20.82;49.20;101938.41;2109789;28;2140;-38
2021/03/24 00:43:22;;;;;;;;;;;;;;;20.82;49.14;101939.25;2109793;28;1792;-35
2021/03/24 00:44:23;;;;;;;;;;;;;;;20.82;49.09;101938.41;2113872;28;2243;-35
2021/03/24 00:45:24;;;;;;;;;;;;;;;20.83;49.22;101942.94;2110043;28;2521;-38
2021/03/24 00:46:24;;;;;;;;;;;;;;;20.82;49.24;101933.56;2105802;28;1330;-37
2021/03/24 00:47:25;;;;;;;;;;;;;;;20.81;49.20;101920.47;2103681;28;2177;-35
2021/03/24 00:48:26;;;;;;;;;;;;;;;20.82;49.17;101936.41;2114227;28;2150;-37
2021/03/24 00:49:27;;;;;;;;;;;;;;;20.82;49.16;101932.72;2110064;28;1308;-36
2021/03/24 00:50:28;;;;;;;;;;;;;;;20.82;49.07;101924.19;2102748;28;2433;-34
2021/03/24 00:51:28;;;;;;;;;;;;;;;20.81;49.07;101922.50;2109684;28;2148;-33
2021/03/24 00:52:29;;;;;;;;;;;;;;;20.82;49.23;101932.72;2101041;28;2475;-39
2021/03/24 00:53:30;;;;;;;;;;;;;;;20.82;49.33;101935.56;2107578;28;2397;-36
2021/03/24 00:54:34;;;;;;;;;;;;;;;20.83;49.32;101934.41;2108529;28;2282;-34
2021/03/24 00:55:34;;;;;;;;;;;;;;;20.82;49.21;101933.56;2109592;28;1100;-34
2021/03/24 00:56:35;;;;;;;;;;;;;;;20.82;49.09;101933.56;2113458;28;1734;-36
2021/03/24 00:57:36;;;;;;;;;;;;;;;20.82;49.18;101925.03;2109857;28;2250;-38
2021/03/24 00:58:37;;;;;;;;;;;;;;;20.81;49.19;101931.88;2106217;28;2155;-34
2021/03/24 00:59:37;;;;;;;;;;;;;;;20.81;49.23;101926.19;2102671;28;2607;-38
2021/03/24 01:00:38;;;;;;;;;;;;;;;20.81;49.04;101919.66;2108358;28;2179;-34
2021/03/24 01:01:39;;;;;;;;;;;;;;;20.80;49.18;101930.19;2104850;28;2164;-34
2021/03/24 01:02:40;;;;;;;;;;;;;;;20.81;49.22;101925.34;2101034;28;2485;-34
2021/03/24 01:03:41;;;;;;;;;;;;;;;20.81;49.18;101928.19;2104678;28;2333;-34
2021/03/24 01:04:41;;;;;;;;;;;;;;;20.80;49.22;101933.03;2112597;28;1634;-34
2021/03/24 01:05:42;;;;;;;;;;;;;;;20.80;49.15;101918.81;2116535;28;1149;-35
2021/03/24 01:06:43;;;;;;;;;;;;;;;20.80;49.25;101920.84;2112502;28;2255;-36
2021/03/24 01:07:44;;;;;;;;;;;;;;;20.80;49.03;101924.50;2114521;28;1202;-37
2021/03/24 01:08:44;;;;;;;;;;;;;;;20.79;49.25;101922.84;2107696;28;2256;-34
2021/03/24 01:09:45;;;;;;;;;;;;;;;20.79;49.08;101922.84;2114335;28;3996;-34
2021/03/24 01:10:46;;;;;;;;;;;;;;;20.79;49.25;101920.00;2101767;28;2353;-37
2021/03/24 01:11:46;;;;;;;;;;;;;;;20.79;49.10;101911.47;2106757;28;2198;-34
2021/03/24 01:12:47;;;;;;;;;;;;;;;20.79;49.00;101911.47;2110134;28;1646;-35
2021/03/24 01:13:48;;;;;;;;;;;;;;;20.79;49.22;101911.47;2105956;28;2114;-34
2021/03/24 01:14:49;;;;;;;;;;;;;;;20.79;49.22;101914.31;2110387;28;1744;-37
2021/03/24 01:15:50;;;;;;;;;;;;;;;20.79;49.19;101911.47;2110477;28;1601;-32
2021/03/24 01:16:51;;;;;;;;;;;;;;;20.79;49.03;101917.16;2100413;28;2373;-38
2021/03/24 01:17:53;;;;;;;;;;;;;;;20.78;49.08;101918.28;2111386;28;2206;-35
2021/03/24 01:18:54;;;;;;;;;;;;;;;20.78;49.22;101921.13;2100595;28;2115;-33
2021/03/24 01:19:54;;;;;;;;;;;;;;;20.79;49.02;101916.31;2106180;28;2044;-35
2021/03/24 01:20:55;;;;;;;;;;;;;;;20.78;49.17;101909.75;2105008;28;2175;-37
2021/03/24 01:21:56;;;;;;;;;;;;;;;20.78;49.12;101921.13;2106039;28;2211;-36
2021/03/24 01:22:57;;;;;;;;;;;;;;;20.78;49.07;101923.97;2109772;28;2102;-36
2021/03/24 01:23:57;;;;;;;;;;;;;;;20.77;49.17;101916.63;2107760;28;2177;-34
2021/03/24 01:24:59;;;;;;;;;;;;;;;20.77;49.00;101908.09;2111759;28;2306;-36
2021/03/24 01:25:59;;;;;;;;;;;;;;;20.78;49.10;101915.44;2108624;28;2092;-33
2021/03/24 01:27:00;;;;;;;;;;;;;;;20.78;49.16;101914.63;2106859;28;2174;-33
2021/03/24 01:28:01;;;;;;;;;;;;;;;20.78;49.16;101911.78;2114972;28;1198;-38
2021/03/24 01:29:02;;;;;;;;;;;;;;;20.77;49.09;101905.25;2105675;28;2316;-35
2021/03/24 01:30:02;;;;;;;;;;;;;;;20.76;49.09;101906.44;2104470;28;2222;-35
2021/03/24 01:31:03;;;;;;;;;;;;;;;20.76;49.02;101917.81;2106046;28;2240;-36
2021/03/24 01:32:04;;;;;;;;;;;;;;;20.76;49.00;101912.13;2109723;28;2119;-36
2021/03/24 01:33:05;;;;;;;;;;;;;;;20.76;49.04;101911.25;2102499;28;2320;-35
2021/03/24 01:34:07;;;;;;;;;;;;;;;20.77;49.05;101910.09;2107739;28;1972;-31
2021/03/24 01:35:08;;;;;;;;;;;;;;;20.77;49.06;101910.09;2113758;28;1515;-36
2021/03/24 01:36:09;;;;;;;;;;;;;;;20.77;49.22;101904.41;2103618;28;2143;-34
2021/03/24 01:37:10;;;;;;;;;;;;;;;20.78;49.06;101911.78;2103131;28;4047;-32
2021/03/24 01:38:10;;;;;;;;;;;;;;;20.77;49.16;101908.09;2122006;27;1214;-33
2021/03/24 01:39:11;;;;;;;;;;;;;;;20.77;49.19;101910.94;2119272;27;2225;-34
2021/03/24 01:40:12;;;;;;;;;;;;;;;20.77;49.13;101905.25;2107343;28;1791;-35
2021/03/24 01:41:13;;;;;;;;;;;;;;;20.78;49.18;101906.09;2104301;28;2080;-36
2021/03/24 01:42:14;;;;;;;;;;;;;;;20.78;49.24;101915.44;2103925;28;2136;-34
2021/03/24 01:43:14;;;;;;;;;;;;;;;20.79;49.27;101910.63;2106622;28;2107;-35
2021/03/24 01:44:15;;;;;;;;;;;;;;;20.79;49.29;101911.47;2115822;28;1121;-36
2021/03/24 01:45:16;;;;;;;;;;;;;;;20.79;49.43;101916.31;2107202;28;1851;-39
2021/03/24 01:46:17;;;;;;;;;;;;;;;20.79;49.26;101911.47;2106911;28;2622;-36
2021/03/24 01:47:17;;;;;;;;;;;;;;;20.80;49.41;101910.28;2100279;28;2186;-36
2021/03/24 01:48:18;;;;;;;;;;;;;;;20.80;49.43;101910.28;2108463;28;2089;-38
2021/03/24 01:49:19;;;;;;;;;;;;;;;20.79;49.32;101908.63;2112455;28;2206;-33
2021/03/24 01:50:20;;;;;;;;;;;;;;;20.80;49.39;101909.44;2104623;28;2324;-35
2021/03/24 01:51:21;;;;;;;;;;;;;;;20.79;49.29;101908.63;2108870;28;1305;-35
2021/03/24 01:52:22;;;;;;;;;;;;;;;20.80;49.28;101917.97;2106621;28;2162;-36
2021/03/24 01:53:22;;;;;;;;;;;;;;;20.80;49.35;101917.97;2109638;28;1615;-35
2021/03/24 01:54:23;;;;;;;;;;;;;;;20.80;49.20;101913.13;2104396;28;2165;-37
2021/03/24 01:55:24;;;;;;;;;;;;;;;20.80;49.41;101913.13;2106904;28;2154;-38
2021/03/24 01:56:25;;;;;;;;;;;;;;;20.80;49.30;101912.28;2107765;28;2111;-35
2021/03/24 01:57:25;;;;;;;;;;;;;;;20.80;49.37;101913.13;2111324;28;2350;-33
2021/03/24 01:58:26;;;;;;;;;;;;;;;20.79;49.40;101911.47;2109964;28;2139;-31
2021/03/24 01:59:27;;;;;;;;;;;;;;;20.80;49.44;101910.28;2113717;28;1134;-40
2021/03/24 02:00:28;;;;;;;;;;;;;;;20.80;49.40;101906.59;2111173;28;2168;-36
2021/03/24 02:01:28;;;;;;;;;;;;;;;20.80;49.25;101912.28;2106418;28;2149;-35
2021/03/24 02:02:29;;;;;;;;;;;;;;;20.78;49.38;101912.59;2104811;28;2419;-37
2021/03/24 02:03:34;;;;;;;;;;;;;;;20.79;49.35;101907.78;2102681;28;2147;-35
2021/03/24 02:04:35;;;;;;;;;;;;;;;20.78;49.28;101909.75;2102931;28;2187;-34
2021/03/24 02:05:36;;;;;;;;;;;;;;;20.79;49.20;101904.94;2113669;28;1129;-33
2021/03/24 02:06:36;;;;;;;;;;;;;;;20.78;49.35;101906.91;2110478;28;1122;-35
2021/03/24 02:07:37;;;;;;;;;;;;;;;20.78;49.31;101908.94;2109869;27;2163;-33
2021/03/24 02:08:38;;;;;;;;;;;;;;;20.79;49.36;101907.78;2118780;27;1198;-38
2021/03/24 02:09:39;;;;;;;;;;;;;;;20.78;49.30;101912.59;2108335;28;3786;-35
2021/03/24 02:10:39;;;;;;;;;;;;;;;20.77;49.26;101908.09;2110253;28;2302;-33
2021/03/24 02:11:43;;;;;;;;;;;;;;;20.78;49.16;101908.94;2118389;27;2324;-32
2021/03/24 02:12:44;;;;;;;;;;;;;;;20.77;49.30;101902.41;2110870;27;2277;-36
2021/03/24 02:13:45;;;;;;;;;;;;;;;20.77;49.33;101905.25;2104466;28;2317;-34
2021/03/24 02:14:46;;;;;;;;;;;;;;;20.78;49.37;101906.91;2113806;28;1202;-36
2021/03/24 02:15:47;;;;;;;;;;;;;;;20.78;49.38;101904.06;2114419;28;1585;-35
2021/03/24 02:16:48;;;;;;;;;;;;;;;20.78;49.36;101906.91;2108212;28;2222;-36
2021/03/24 02:17:49;;;;;;;;;;;;;;;20.79;49.31;101904.94;2107463;28;2290;-33
2021/03/24 02:18:50;;;;;;;;;;;;;;;20.78;49.39;101900.41;2105645;28;2079;-36
2021/03/24 02:19:51;;;;;;;;;;;;;;;20.77;49.34;101898.72;2109613;28;2290;-34
2021/03/24 02:20:52;;;;;;;;;;;;;;;20.77;49.18;101899.56;2112073;28;2174;-34
2021/03/24 02:22:11;;;;;;;;;;;;;;;20.76;49.42;101900.75;2105336;28;2160;-37
2021/03/24 02:23:12;;;;;;;;;;;;;;;20.78;49.22;101894.72;2108792;28;2551;-33
2021/03/24 02:24:13;;;;;;;;;;;;;;;20.78;49.35;101894.72;2106373;28;2192;-33
2021/03/24 02:25:14;;;;;;;;;;;;;;;20.77;49.33;101902.41;2104429;28;2292;-36
2021/03/24 02:26:14;;;;;;;;;;;;;;;20.77;49.41;101891.03;2109884;28;2063;-35
2021/03/24 02:27:15;;;;;;;;;;;;;;;20.78;49.27;101894.72;2103388;28;2091;-33
2021/03/24 02:28:16;;;;;;;;;;;;;;;20.77;49.21;101888.19;2094005;28;2247;-39
2021/03/24 02:29:17;;;;;;;;;;;;;;;20.77;49.31;101899.56;2089785;28;2348;-32
2021/03/24 02:30:18;;;;;;;;;;;;;;;20.77;49.25;101910.94;2112691;28;1680;-34
2021/03/24 02:31:18;;;;;;;;;;;;;;;20.76;49.32;101912.13;2100804;28;2524;-32
2021/03/24 02:32:19;;;;;;;;;;;;;;;20.76;49.35;101911.25;2103039;28;2184;-36
2021/03/24 02:33:20;;;;;;;;;;;;;;;20.76;49.34;101912.13;2104994;28;2269;-36
2021/03/24 02:34:21;;;;;;;;;;;;;;;20.77;49.40;101921.47;2106830;28;2178;-34
2021/03/24 02:35:22;;;;;;;;;;;;;;;20.77;49.25;101913.78;2115044;28;1496;-37
2021/03/24 02:36:23;;;;;;;;;;;;;;;20.76;49.40;101916.94;2106025;28;3646;-36
2021/03/24 02:37:23;;;;;;;;;;;;;;;20.75;49.39;101913.25;2103133;28;2241;-37
2021/03/24 02:38:24;;;;;;;;;;;;;;;20.76;49.49;101912.13;2113185;28;1641;-36
2021/03/24 02:39:25;;;;;;;;;;;;;;;20.75;49.24;101921.78;2109866;28;1332;-35
2021/03/24 02:40:26;;;;;;;;;;;;;;;20.76;49.39;101911.25;2102857;28;2211;-33
2021/03/24 02:41:26;;;;;;;;;;;;;;;20.77;49.38;101918.63;2102255;28;2440;-34
2021/03/24 02:42:28;;;;;;;;;;;;;;;20.75;49.42;101927.47;2107277;28;2242;-34
2021/03/24 02:43:29;;;;;;;;;;;;;;;20.76;49.26;101917.81;2106436;28;2200;-38
2021/03/24 02:44:30;;;;;;;;;;;;;;;20.75;49.23;101918.94;2107606;28;1991;-33
2021/03/24 02:45:30;;;;;;;;;;;;;;;20.75;49.38;101915.28;2102207;28;2131;-41
2021/03/24 02:46:31;;;;;;;;;;;;;;;20.75;49.22;101913.25;2106798;28;2575;-37
2021/03/24 02:47:32;;;;;;;;;;;;;;;20.74;49.34;101908.75;2107158;28;1388;-35
2021/03/24 02:48:33;;;;;;;;;;;;;;;20.75;49.47;101918.94;2108411;28;2138;-34
2021/03/24 02:49:34;;;;;;;;;;;;;;;20.75;49.29;101916.09;2106596;28;2357;-37
2021/03/24 02:50:35;;;;;;;;;;;;;;;20.76;49.45;101914.97;2110595;28;2195;-36
2021/03/24 02:51:36;;;;;;;;;;;;;;;20.75;49.41;101907.56;2107252;28;2192;-37
2021/03/24 02:52:37;;;;;;;;;;;;;;;20.76;49.60;101912.13;2106211;28;2318;-33
2021/03/24 02:53:39;;;;;;;;;;;;;;;20.76;49.61;101908.41;2113060;28;1906;-35
2021/03/24 02:54:39;;;;;;;;;;;;;;;20.76;49.66;101912.13;2101644;28;2196;-34
2021/03/24 02:55:40;;;;;;;;;;;;;;;20.77;49.61;101912.94;2103164;28;2178;-34
2021/03/24 02:56:41;;;;;;;;;;;;;;;20.76;49.61;101909.28;2105600;28;2169;-35
2021/03/24 02:57:42;;;;;;;;;;;;;;;20.76;49.59;101906.44;2102012;28;2327;-35
2021/03/24 02:58:42;;;;;;;;;;;;;;;20.78;49.59;101911.78;2107590;28;1710;-35
2021/03/24 02:59:43;;;;;;;;;;;;;;;20.78;49.67;101903.25;2111969;28;2144;-35
2021/03/24 03:00:44;;;;;;;;;;;;;;;20.77;49.84;101905.25;2102454;28;2136;-38
2021/03/24 03:01:45;;;;;;;;;;;;;;;20.77;49.77;101899.56;2104764;28;2112;-37
2021/03/24 03:02:46;;;;;;;;;;;;;;;20.78;49.89;101906.09;2107956;28;2206;-39
2021/03/24 03:03:48;;;;;;;;;;;;;;;20.78;49.83;101909.75;2100405;28;2117;-36
2021/03/24 03:04:48;;;;;;;;;;;;;;;20.78;49.89;101903.25;2108505;28;2160;-38
2021/03/24 03:05:49;;;;;;;;;;;;;;;20.79;49.83;101910.63;2103448;28;2119;-35
2021/03/24 03:06:50;;;;;;;;;;;;;;;20.79;49.86;101904.94;2107955;28;1333;-36
2021/03/24 03:07:51;;;;;;;;;;;;;;;20.80;49.85;101907.44;2108331;28;1900;-37
2021/03/24 03:08:52;;;;;;;;;;;;;;;20.80;49.91;101904.59;2110924;28;2429;-37
2021/03/24 03:09:52;;;;;;;;;;;;;;;20.80;49.89;101907.44;2103149;28;4049;-37
2021/03/24 03:10:53;;;;;;;;;;;;;;;20.80;49.94;101904.59;2105426;28;2114;-38
2021/03/24 03:11:54;;;;;;;;;;;;;;;20.80;49.85;101906.59;2108773;28;2089;-35
2021/03/24 03:12:55;;;;;;;;;;;;;;;20.81;49.82;101908.28;2102981;28;1650;-40
2021/03/24 03:13:55;;;;;;;;;;;;;;;20.80;49.96;101901.75;2103426;28;2154;-33
2021/03/24 03:14:56;;;;;;;;;;;;;;;20.80;49.79;101901.75;2111069;28;1669;-36
2021/03/24 03:15:57;;;;;;;;;;;;;;;20.80;49.82;101900.91;2102524;28;2249;-36
2021/03/24 03:16:58;;;;;;;;;;;;;;;20.81;49.76;101900.56;2108591;28;2133;-36
2021/03/24 03:17:59;;;;;;;;;;;;;;;20.81;49.75;101905.44;2107670;28;1993;-34
2021/03/24 03:19:00;;;;;;;;;;;;;;;20.80;49.77;101898.06;2109537;28;2222;-39
2021/03/24 03:20:01;;;;;;;;;;;;;;;20.79;49.78;101904.94;2107420;28;2057;-33
2021/03/24 03:21:02;;;;;;;;;;;;;;;20.78;49.58;101897.56;2104404;28;2109;-36
2021/03/24 03:22:02;;;;;;;;;;;;;;;20.77;49.69;101905.25;2106804;28;2256;-37
2021/03/24 03:23:03;;;;;;;;;;;;;;;20.77;49.63;101910.94;2110243;28;1168;-37
2021/03/24 03:24:04;;;;;;;;;;;;;;;20.77;49.73;101910.94;2110969;28;1352;-36
2021/03/24 03:25:05;;;;;;;;;;;;;;;20.77;49.74;101913.78;2101749;28;2224;-36
2021/03/24 03:26:05;;;;;;;;;;;;;;;20.77;49.69;101907.25;2104083;28;2216;-34
2021/03/24 03:27:06;;;;;;;;;;;;;;;20.76;49.51;101909.28;2108483;28;2159;-36
2021/03/24 03:28:07;;;;;;;;;;;;;;;20.76;49.67;101908.41;2105997;28;2107;-36
2021/03/24 03:29:08;;;;;;;;;;;;;;;20.76;49.76;101912.13;2106558;28;1223;-35
2021/03/24 03:30:09;;;;;;;;;;;;;;;20.76;49.66;101912.13;2104218;28;2130;-34
2021/03/24 03:31:10;;;;;;;;;;;;;;;20.75;49.58;101910.41;2111798;28;1715;-35
2021/03/24 03:32:10;;;;;;;;;;;;;;;20.76;49.51;101911.25;2106949;28;2194;-38
2021/03/24 03:33:11;;;;;;;;;;;;;;;20.76;49.57;101905.56;2113336;28;1483;-36
2021/03/24 03:34:12;;;;;;;;;;;;;;;20.76;49.70;101917.81;2103998;28;2165;-35
2021/03/24 03:35:13;;;;;;;;;;;;;;;20.75;49.61;101909.59;2105588;28;2179;-35
2021/03/24 03:36:14;;;;;;;;;;;;;;;20.76;49.53;101911.25;2107140;28;3647;-35
2021/03/24 03:37:15;;;;;;;;;;;;;;;20.75;49.61;101913.25;2107860;28;2304;-32
2021/03/24 03:38:15;;;;;;;;;;;;;;;20.75;49.65;101910.41;2107303;28;2018;-35
2021/03/24 03:39:16;;;;;;;;;;;;;;;20.74;49.74;101911.59;2108215;28;2153;-34
2021/03/24 03:40:17;;;;;;;;;;;;;;;20.75;49.66;101912.44;2103989;28;2158;-32
2021/03/24 03:41:18;;;;;;;;;;;;;;;20.75;49.60;101907.56;2111867;28;1084;-36
2021/03/24 03:42:18;;;;;;;;;;;;;;;20.74;49.56;101908.75;2109026;28;2166;-36
2021/03/24 03:43:19;;;;;;;;;;;;;;;20.74;49.69;101910.75;2107282;28;2345;-35
2021/03/24 03:44:20;;;;;;;;;;;;;;;20.75;49.71;101903.91;2109104;28;2348;-35
2021/03/24 03:45:21;;;;;;;;;;;;;;;20.75;49.64;101903.91;2108242;28;1985;-37
2021/03/24 03:46:21;;;;;;;;;;;;;;;20.75;49.70;101903.91;2106358;28;2623;-33
2021/03/24 03:47:22;;;;;;;;;;;;;;;20.74;49.74;101905.91;2102777;28;2147;-37
2021/03/24 03:48:23;;;;;;;;;;;;;;;20.74;49.62;101908.75;2112086;28;2026;-36
2021/03/24 03:49:24;;;;;;;;;;;;;;;20.74;49.64;101903.06;2098210;28;2520;-35
2021/03/24 03:50:25;;;;;;;;;;;;;;;20.74;49.61;101905.91;2107715;28;2197;-36
2021/03/24 03:51:26;;;;;;;;;;;;;;;20.75;49.62;101903.91;2106420;28;2103;-35
2021/03/24 03:52:27;;;;;;;;;;;;;;;20.74;49.70;101900.22;2100670;28;2235;-38
2021/03/24 03:53:27;;;;;;;;;;;;;;;20.75;49.66;101904.72;2108047;28;1370;-35
2021/03/24 03:54:28;;;;;;;;;;;;;;;20.74;49.71;101903.06;2113166;28;1914;-32
2021/03/24 03:55:29;;;;;;;;;;;;;;;20.74;49.74;101896.53;2109558;27;2218;-34
2021/03/24 03:56:30;;;;;;;;;;;;;;;20.74;49.78;101894.53;2111617;28;1672;-36
2021/03/24 03:57:30;;;;;;;;;;;;;;;20.74;49.71;101890.84;2106435;28;2187;-36
2021/03/24 03:58:31;;;;;;;;;;;;;;;20.75;nan;101899.03;2099380;28;2146;-38
2021/03/24 03:59:32;;;;;;;;;;;;;;;20.74;49.75;101894.53;2102511;28;2113;-35
2021/03/24 04:00:33;;;;;;;;;;;;;;;20.76;49.87;101899.88;2102203;28;2322;-35
2021/03/24 04:01:33;;;;;;;;;;;;;;;20.76;49.85;101899.88;2101360;28;2201;-39
2021/03/24 04:02:34;;;;;;;;;;;;;;;20.76;49.79;101894.19;2106611;28;2243;-36
2021/03/24 04:03:35;;;;;;;;;;;;;;;20.75;49.75;101893.34;2107833;28;2584;-35
2021/03/24 04:04:36;;;;;;;;;;;;;;;20.76;49.71;101888.50;2106617;28;2190;-33
2021/03/24 04:05:37;;;;;;;;;;;;;;;20.75;49.72;101896.19;2109157;28;2181;-34
2021/03/24 04:06:38;;;;;;;;;;;;;;;20.75;49.69;101892.53;2111679;28;2175;-35
2021/03/24 04:07:39;;;;;;;;;;;;;;;20.76;49.72;101885.66;2107076;28;2236;-35
2021/03/24 04:08:39;;;;;;;;;;;;;;;20.74;49.80;101888.84;2101551;28;2598;-34
2021/03/24 04:09:40;;;;;;;;;;;;;;;20.74;49.80;101891.69;2106487;28;4054;-36
2021/03/24 04:10:41;;;;;;;;;;;;;;;20.75;49.68;101889.69;2102820;28;3791;-37
2021/03/24 04:11:42;;;;;;;;;;;;;;;20.74;49.82;101886.00;2103134;28;2191;-34
2021/03/24 04:12:42;;;;;;;;;;;;;;;20.74;49.74;101880.31;2103480;28;2550;-34
2021/03/24 04:13:43;;;;;;;;;;;;;;;20.75;49.86;101881.97;2106743;28;2190;-30
2021/03/24 04:14:44;;;;;;;;;;;;;;;20.74;49.81;101886.00;2109649;28;1894;-32
2021/03/24 04:15:45;;;;;;;;;;;;;;;20.75;49.80;101878.31;2104108;28;2165;-34
2021/03/24 04:16:45;;;;;;;;;;;;;;;20.74;49.82;101880.31;2106512;28;1622;-37
2021/03/24 04:17:46;;;;;;;;;;;;;;;20.74;49.80;101874.63;2111909;28;1990;-35
2021/03/24 04:18:47;;;;;;;;;;;;;;;20.74;49.85;101873.78;2105566;28;2161;-34
2021/03/24 04:19:48;;;;;;;;;;;;;;;20.74;49.80;101874.63;2107270;28;1090;-35
2021/03/24 04:20:49;;;;;;;;;;;;;;;20.74;49.81;101874.63;2107679;28;2120;-36
2021/03/24 04:21:50;;;;;;;;;;;;;;;20.74;49.82;101880.31;2110370;28;1880;-33
2021/03/24 04:22:50;;;;;;;;;;;;;;;20.75;49.75;101878.31;2106677;28;2131;-35
2021/03/24 04:23:51;;;;;;;;;;;;;;;20.75;49.86;101881.13;2103866;28;2258;-34
2021/03/24 04:24:52;;;;;;;;;;;;;;;20.74;49.79;101873.78;2110612;28;1606;-31
2021/03/24 04:25:53;;;;;;;;;;;;;;;20.75;49.80;101872.59;2106873;28;1449;-36
2021/03/24 04:26:54;;;;;;;;;;;;;;;20.74;49.84;101874.63;2102925;28;2195;-32
2021/03/24 04:27:54;;;;;;;;;;;;;;;20.75;49.83;101873.44;2105494;28;1603;-34
2021/03/24 04:28:55;;;;;;;;;;;;;;;20.75;49.76;101878.31;2106060;28;2229;-35
2021/03/24 04:29:56;;;;;;;;;;;;;;;20.75;49.98;101884.81;2107345;28;2493;-34
2021/03/24 04:30:56;;;;;;;;;;;;;;;20.75;nan;101884.00;2101805;28;1542;-34
2021/03/24 04:31:57;;;;;;;;;;;;;;;20.75;49.89;101887.66;2109747;28;2186;-35
2021/03/24 04:32:58;;;;;;;;;;;;;;;20.74;49.83;101888.84;2102186;28;2445;-34
2021/03/24 04:33:59;;;;;;;;;;;;;;;20.74;49.86;101900.22;2103951;28;2324;-37
2021/03/24 04:35:00;;;;;;;;;;;;;;;20.74;49.86;101894.53;2101696;28;2506;-37
2021/03/24 04:36:01;;;;;;;;;;;;;;;20.74;49.91;101905.91;2099995;28;1246;-35
2021/03/24 04:37:01;;;;;;;;;;;;;;;20.74;49.97;101899.38;2101627;28;3641;-35
2021/03/24 04:38:02;;;;;;;;;;;;;;;20.75;49.89;101898.22;2114748;28;1195;-35
2021/03/24 04:39:03;;;;;;;;;;;;;;;20.75;49.82;101899.03;2104774;28;1597;-37
2021/03/24 04:40:04;;;;;;;;;;;;;;;20.75;49.92;101901.06;2104427;28;2143;-36
2021/03/24 04:41:04;;;;;;;;;;;;;;;20.74;49.80;101891.69;2102188;28;1115;-33
2021/03/24 04:42:05;;;;;;;;;;;;;;;20.75;50.03;101893.34;2101482;28;2211;-34
2021/03/24 04:43:06;;;;;;;;;;;;;;;20.75;49.99;101892.53;2115083;28;932;-32
2021/03/24 04:44:06;;;;;;;;;;;;;;;20.75;49.95;101890.50;2103711;28;1417;-33
2021/03/24 04:45:07;;;;;;;;;;;;;;;20.74;49.82;101886.00;2098753;28;2135;-34
2021/03/24 04:46:08;;;;;;;;;;;;;;;20.74;49.79;101891.69;2105907;28;1344;-34
2021/03/24 04:47:09;;;;;;;;;;;;;;;20.74;49.93;101890.84;2106972;28;2232;-34
2021/03/24 04:48:10;;;;;;;;;;;;;;;20.74;49.85;101890.84;2099918;28;1861;-33
2021/03/24 04:49:11;;;;;;;;;;;;;;;20.74;49.75;101896.53;2099555;28;2197;-32
2021/03/24 04:50:12;;;;;;;;;;;;;;;20.75;49.76;101898.22;2103683;28;2170;-35
2021/03/24 04:51:13;;;;;;;;;;;;;;;20.74;49.74;101890.84;2101032;28;2287;-34
2021/03/24 04:52:14;;;;;;;;;;;;;;;20.74;49.80;101882.31;2099592;28;2161;-35
2021/03/24 04:53:15;;;;;;;;;;;;;;;20.75;49.71;101892.53;2104591;28;2526;-36
2021/03/24 04:54:17;;;;;;;;;;;;;;;20.73;49.85;101884.34;2105984;28;1968;-32
2021/03/24 04:55:18;;;;;;;;;;;;;;;20.73;49.73;101892.84;2104948;28;2185;-35
2021/03/24 04:56:19;;;;;;;;;;;;;;;20.73;49.86;101890.03;2101214;28;1533;-34
2021/03/24 04:57:20;;;;;;;;;;;;;;;20.73;49.83;101898.56;2106529;28;1985;-41
2021/03/24 04:58:20;;;;;;;;;;;;;;;20.73;49.75;101890.03;2102734;28;2439;-38
2021/03/24 04:59:21;;;;;;;;;;;;;;;20.73;49.83;101898.56;2106395;28;1202;-34
2021/03/24 05:00:22;;;;;;;;;;;;;;;20.73;49.82;101895.72;2101019;28;2129;-35
2021/03/24 05:01:22;;;;;;;;;;;;;;;20.74;49.81;101888.00;2099810;28;2285;-37
2021/03/24 05:02:23;;;;;;;;;;;;;;;20.74;49.76;101897.38;2099555;28;2198;-35
2021/03/24 05:03:24;;;;;;;;;;;;;;;20.73;49.75;101895.72;2098991;28;2169;-33
2021/03/24 05:04:25;;;;;;;;;;;;;;;20.74;49.75;101903.06;2106244;28;1240;-36
2021/03/24 05:05:26;;;;;;;;;;;;;;;20.73;49.84;101907.09;2098207;28;2529;-37
2021/03/24 05:06:27;;;;;;;;;;;;;;;20.73;49.78;101895.72;2106838;28;1621;-34
2021/03/24 05:07:28;;;;;;;;;;;;;;;20.73;49.69;101898.56;2106953;28;1182;-33
2021/03/24 05:08:29;;;;;;;;;;;;;;;20.73;49.77;101901.41;2100259;28;2040;-34
2021/03/24 05:09:29;;;;;;;;;;;;;;;20.74;49.78;101902.22;2102062;28;3672;-35
2021/03/24 05:10:30;;;;;;;;;;;;;;;20.74;49.80;101902.22;2105489;28;1383;-35
2021/03/24 05:11:31;;;;;;;;;;;;;;;20.73;49.71;101904.25;2100260;28;2174;-34
2021/03/24 05:12:32;;;;;;;;;;;;;;;20.74;49.78;101902.22;2109507;28;1465;-34
2021/03/24 05:13:33;;;;;;;;;;;;;;;20.73;49.59;101898.56;2098460;28;2213;-36
2021/03/24 05:14:34;;;;;;;;;;;;;;;20.74;49.78;101897.38;2101397;28;1965;-36
2021/03/24 05:15:34;;;;;;;;;;;;;;;20.73;49.73;101895.72;2109104;28;1493;-37
2021/03/24 05:16:35;;;;;;;;;;;;;;;20.74;49.78;101902.22;2102579;28;2387;-37
2021/03/24 05:17:36;;;;;;;;;;;;;;;20.73;49.72;101897.69;2103272;28;1934;-36